Time;durP1;ratioP1;P1;durP2;ratioP2;P2;SDS_P1;SDS_P2;PMS_P1;PMS_P2;Temp;Humidity;BMP_temperature;BMP_pressure;BME280_temperature;BME280_humidity;BME280_pressure;Samples;Min_cycle;Max_cycle;Signal;HPM_P1;HPM_P2
2023/12/06 00:00:54;;;;;;;40.40;22.20;;;;;;;-3.00;100.00;101446.42;109341;1252;72954;-57
2023/12/06 00:03:22;;;;;;;39.90;23.30;;;;;;;-3.02;100.00;101450.60;109300;1254;60490;-56
2023/12/06 00:05:49;;;;;;;38.20;22.90;;;;;;;-3.06;100.00;101447.70;109319;1253;58966;-55
2023/12/06 00:08:17;;;;;;;34.40;21.00;;;;;;;-3.07;100.00;101443.16;109345;1253;75182;-54
2023/12/06 00:10:45;;;;;;;34.30;20.90;;;;;;;-3.08;100.00;101433.84;109292;1253;65631;-58
2023/12/06 00:13:13;;;;;;;39.70;23.00;;;;;;;-3.08;100.00;101435.71;109317;1253;73652;-58
2023/12/06 00:15:41;;;;;;;33.10;21.30;;;;;;;-3.07;100.00;101434.83;109337;1254;59325;-57
2023/12/06 00:18:08;;;;;;;34.80;22.50;;;;;;;-3.08;100.00;101436.73;109404;1252;59049;-57
2023/12/06 00:20:36;;;;;;;37.10;22.50;;;;;;;-3.08;100.00;101431.15;109342;1253;74657;-57
2023/12/06 00:23:04;;;;;;;33.50;20.40;;;;;;;-3.11;100.00;101430.58;109266;1253;67778;-54
2023/12/06 00:25:31;;;;;;;34.00;20.60;;;;;;;-3.12;100.00;101429.27;109316;1253;72764;-57
2023/12/06 00:27:59;;;;;;;32.10;20.00;;;;;;;-3.11;100.00;101432.80;109341;1253;58966;-56
2023/12/06 00:30:27;;;;;;;33.00;20.40;;;;;;;-3.11;100.00;101430.91;109346;1252;58947;-56
2023/12/06 00:32:54;;;;;;;32.60;19.80;;;;;;;-3.10;100.00;101426.14;109353;1252;73414;-62
2023/12/06 00:35:22;;;;;;;32.50;20.20;;;;;;;-3.14;100.00;101422.23;109292;1253;67017;-56
2023/12/06 00:37:50;;;;;;;34.80;19.60;;;;;;;-3.17;100.00;101419.45;109342;1252;72667;-56
2023/12/06 00:40:18;;;;;;;29.00;19.10;;;;;;;-3.17;100.00;101414.89;109356;1253;59371;-56
2023/12/06 00:42:45;;;;;;;30.00;18.60;;;;;;;-3.16;100.00;101417.41;109387;1252;59410;-56
2023/12/06 00:45:13;;;;;;;31.40;18.80;;;;;;;-3.16;100.00;101418.91;109324;1253;74724;-62
2023/12/06 00:47:41;;;;;;;27.10;16.40;;;;;;;-3.16;100.00;101424.03;109303;1252;65708;-56
2023/12/06 00:50:08;;;;;;;30.00;19.60;;;;;;;-3.16;100.00;101415.85;109342;1254;72745;-55
2023/12/06 00:52:36;;;;;;;31.50;19.00;;;;;;;-3.17;100.00;101412.16;109359;1252;59267;-57
2023/12/06 00:55:04;;;;;;;29.30;19.60;;;;;;;-3.19;100.00;101413.73;109325;1253;60079;-54
2023/12/06 00:57:32;;;;;;;31.80;18.30;;;;;;;-3.20;100.00;101408.48;109315;1253;74165;-56
2023/12/06 01:00:00;;;;;;;28.40;17.80;;;;;;;-3.19;100.00;101404.75;109355;1254;65512;-55
2023/12/06 01:02:27;;;;;;;30.50;19.00;;;;;;;-3.22;100.00;101404.68;109328;1253;72765;-55
2023/12/06 01:04:55;;;;;;;33.60;18.80;;;;;;;-3.23;100.00;101414.09;109267;1253;59890;-54
2023/12/06 01:07:22;;;;;;;31.00;19.30;;;;;;;-3.25;100.00;101405.67;109351;1252;60024;-54
2023/12/06 01:09:52;;;;;;;32.10;19.30;;;;;;;-3.27;100.00;101407.63;109341;1253;74737;-55
2023/12/06 01:12:20;;;;;;;26.80;17.20;;;;;;;-3.27;100.00;101404.73;109364;1254;65616;-54
2023/12/06 01:14:47;;;;;;;30.30;17.60;;;;;;;-3.30;100.00;101401.98;109312;1253;71477;-55
2023/12/06 01:17:15;;;;;;;37.20;19.20;;;;;;;-3.35;100.00;101407.13;109276;1252;59347;-57
2023/12/06 01:19:43;;;;;;;39.00;20.70;;;;;;;-3.37;100.00;101405.70;109329;1253;60141;-55
2023/12/06 01:22:10;;;;;;;31.80;19.10;;;;;;;-3.39;100.00;101402.90;109478;1252;74828;-55
2023/12/06 01:24:38;;;;;;;31.80;18.90;;;;;;;-3.42;100.00;101399.95;109297;1252;66925;-55
2023/12/06 01:27:06;;;;;;;33.40;19.40;;;;;;;-3.43;100.00;101398.11;109351;1252;72852;-54
2023/12/06 01:29:33;;;;;;;30.70;18.60;;;;;;;-3.44;100.00;101392.91;109325;1253;58972;-58
2023/12/06 01:32:01;;;;;;;32.30;20.00;;;;;;;-3.46;100.00;101394.00;109314;1252;59177;-56
2023/12/06 01:34:28;;;;;;;35.90;19.40;;;;;;;-3.48;100.00;101392.04;109349;1253;73414;-54
2023/12/06 01:36:56;;;;;;;35.60;19.70;;;;;;;-3.49;100.00;101386.47;109395;1253;65795;-55
2023/12/06 01:39:24;;;;;;;30.30;18.30;;;;;;;-3.49;100.00;101383.77;109305;1252;72740;-55
2023/12/06 01:41:53;;;;;;;34.80;20.10;;;;;;;-3.49;100.00;101378.67;109260;1254;59378;-55
2023/12/06 01:44:20;;;;;;;32.70;20.70;;;;;;;-3.50;100.00;101378.90;109353;1252;59047;-56
2023/12/06 01:46:48;;;;;;;34.70;21.10;;;;;;;-3.51;100.00;101368.55;109364;1252;73425;-54
2023/12/06 01:49:15;;;;;;;32.30;19.50;;;;;;;-3.50;100.00;101359.52;109397;1252;66951;-54
2023/12/06 01:51:43;;;;;;;30.50;18.30;;;;;;;-3.49;100.00;101355.55;109317;1252;72871;-54
2023/12/06 01:54:11;;;;;;;32.10;18.00;;;;;;;-3.47;100.00;101352.77;109323;1253;59433;-55
2023/12/06 01:56:38;;;;;;;30.50;19.00;;;;;;;-3.49;100.00;101353.84;109336;1252;58870;-55
2023/12/06 01:59:07;;;;;;;35.50;20.90;;;;;;;-3.51;100.00;101354.95;109295;1252;74755;-55
2023/12/06 02:01:35;;;;;;;32.90;19.20;;;;;;;-3.50;100.00;101361.88;109373;1253;66972;-54
2023/12/06 02:04:03;;;;;;;35.00;19.40;;;;;;;-3.49;100.00;101365.44;109332;1254;72607;-56
2023/12/06 02:06:30;;;;;;;31.30;17.60;;;;;;;-3.50;100.00;101361.73;109351;1253;59493;-55
2023/12/06 02:08:59;;;;;;;31.00;18.40;;;;;;;-3.50;100.00;101358.31;109384;1253;59053;-54
2023/12/06 02:11:27;;;;;;;29.40;16.70;;;;;;;-3.49;100.00;101353.02;109355;1252;73446;-54
2023/12/06 02:13:54;;;;;;;27.80;17.30;;;;;;;-3.48;100.00;101356.20;109449;1253;66285;-57
2023/12/06 02:16:22;;;;;;;31.70;17.20;;;;;;;-3.49;100.00;101357.23;109316;1253;72704;-55
2023/12/06 02:18:50;;;;;;;30.80;17.90;;;;;;;-3.47;100.00;101360.73;109229;1253;59351;-57
2023/12/06 02:21:18;;;;;;;29.30;16.00;;;;;;;-3.45;100.00;101361.16;109316;1254;59093;-57
2023/12/06 02:23:46;;;;;;;29.80;17.90;;;;;;;-3.43;100.00;101362.93;109185;1252;74751;-56
2023/12/06 02:26:13;;;;;;;29.80;17.20;;;;;;;-3.42;100.00;101360.34;109299;1253;66822;-62
2023/12/06 02:28:41;;;;;;;30.50;16.90;;;;;;;-3.42;100.00;101358.83;109372;1253;71243;-54
2023/12/06 02:31:09;;;;;;;28.90;16.80;;;;;;;-3.40;100.00;101361.31;109345;1252;59647;-54
2023/12/06 02:33:36;;;;;;;28.30;15.50;;;;;;;-3.39;100.00;101361.09;109394;1252;59021;-54
2023/12/06 02:36:04;;;;;;;27.50;17.20;;;;;;;-3.40;100.00;101361.45;109317;1253;74719;-55
2023/12/06 02:38:33;;;;;;;28.60;17.20;;;;;;;-3.40;100.00;101360.11;109306;1254;67375;-55
2023/12/06 02:41:01;;;;;;;30.30;18.00;;;;;;;-3.40;100.00;101361.50;109378;1253;72628;-54
2023/12/06 02:43:28;;;;;;;27.50;15.70;;;;;;;-3.41;100.00;101359.13;109379;1252;58984;-54
2023/12/06 02:45:56;;;;;;;27.00;15.90;;;;;;;-3.39;100.00;101357.02;109443;1253;59432;-55
2023/12/06 02:48:24;;;;;;;32.30;17.00;;;;;;;-3.40;100.00;101362.81;109349;1253;74729;-59
2023/12/06 02:50:51;;;;;;;26.50;15.70;;;;;;;-3.40;100.00;101356.05;109211;1253;66919;-55
2023/12/06 02:53:19;;;;;;;24.80;14.30;;;;;;;-3.41;100.00;101358.27;109419;1252;71454;-54
2023/12/06 02:55:47;;;;;;;24.80;14.90;;;;;;;-3.41;100.00;101361.67;109358;1253;60227;-54
2023/12/06 02:58:14;;;;;;;30.50;15.80;;;;;;;-3.40;100.00;101359.08;109388;1252;59398;-56
2023/12/06 03:00:42;;;;;;;30.40;15.30;;;;;;;-3.39;100.00;101356.47;109294;1253;75144;-56
2023/12/06 03:03:09;;;;;;;29.80;14.20;;;;;;;-3.38;100.00;101354.26;109372;1252;65985;-54
2023/12/06 03:05:37;;;;;;;28.50;14.00;;;;;;;-3.38;100.00;101358.81;109350;1253;72734;-55
2023/12/06 03:08:05;;;;;;;24.80;14.20;;;;;;;-3.37;100.00;101359.82;109333;1253;59559;-55
2023/12/06 03:10:33;;;;;;;22.70;13.10;;;;;;;-3.37;100.00;101363.90;109307;1252;60116;-60
2023/12/06 03:13:00;;;;;;;22.80;13.30;;;;;;;-3.36;100.00;101365.20;109389;1253;73770;-55
2023/12/06 03:15:28;;;;;;;27.80;14.90;;;;;;;-3.33;100.00;101364.73;109409;1252;66978;-55
2023/12/06 03:17:56;;;;;;;24.60;14.10;;;;;;;-3.32;100.00;101362.64;109356;1253;71421;-55
2023/12/06 03:20:24;;;;;;;28.80;13.20;;;;;;;-3.31;100.00;101356.13;109376;1253;60928;-59
2023/12/06 03:22:52;;;;;;;23.10;12.40;;;;;;;-3.31;100.00;101351.73;109308;1252;60630;-54
2023/12/06 03:25:19;;;;;;;21.90;13.20;;;;;;;-3.32;100.00;101352.60;109307;1253;73492;-56
2023/12/06 03:27:47;;;;;;;23.90;13.80;;;;;;;-3.32;100.00;101344.63;109374;1254;65669;-55
2023/12/06 03:30:14;;;;;;;26.70;14.10;;;;;;;-3.33;100.00;101344.15;109383;1253;72667;-54
2023/12/06 03:32:57;;;;;;;22.90;13.70;;;;;;;-3.33;100.00;101347.56;109320;1253;59646;-55
2023/12/06 03:35:25;;;;;;;21.80;13.10;;;;;;;-3.33;100.00;101351.14;109415;1253;59181;-55
2023/12/06 03:37:54;;;;;;;22.50;12.10;;;;;;;-3.34;100.00;101351.66;109315;1253;74655;-54
2023/12/06 03:40:21;;;;;;;40.40;14.90;;;;;;;-3.33;100.00;101355.90;109279;1254;67065;-55
2023/12/06 03:42:49;;;;;;;22.00;12.70;;;;;;;-3.34;100.00;101360.18;109317;1254;71984;-55
2023/12/06 03:45:17;;;;;;;34.30;13.90;;;;;;;-3.34;100.00;101360.83;109275;1254;60966;-55
2023/12/06 03:47:45;;;;;;;25.50;14.00;;;;;;;-3.33;100.00;101364.21;109342;1252;59229;-55
2023/12/06 03:50:13;;;;;;;28.20;13.10;;;;;;;-3.32;100.00;101367.89;109324;1254;74710;-54
2023/12/06 03:52:41;;;;;;;25.00;13.40;;;;;;;-3.31;100.00;101374.48;109302;1252;66929;-55
2023/12/06 03:55:08;;;;;;;22.20;12.60;;;;;;;-3.30;100.00;101374.29;109351;1253;72754;-55
2023/12/06 03:57:36;;;;;;;21.60;13.40;;;;;;;-3.29;100.00;101379.85;109311;1253;60964;-55
2023/12/06 04:00:04;;;;;;;27.20;14.30;;;;;;;-3.26;100.00;101380.07;109324;1253;60233;-55
2023/12/06 04:02:38;;;;;;;24.30;12.90;;;;;;;-3.25;100.00;101384.27;109312;1252;73477;-58
2023/12/06 04:05:06;;;;;;;22.90;13.10;;;;;;;-3.24;100.00;101388.13;109360;1252;65616;-55
2023/12/06 04:07:33;;;;;;;25.20;13.90;;;;;;;-3.24;100.00;101387.26;109291;1252;72693;-54
2023/12/06 04:10:01;;;;;;;29.20;13.80;;;;;;;-3.25;100.00;101389.52;109314;1254;61313;-54
2023/12/06 04:12:29;;;;;;;22.20;13.70;;;;;;;-3.23;100.00;101387.06;109319;1253;60072;-54
2023/12/06 04:14:56;;;;;;;27.40;15.70;;;;;;;-3.23;100.00;101384.70;109289;1253;73809;-54
2023/12/06 04:17:24;;;;;;;26.40;15.10;;;;;;;-3.23;100.00;101382.64;109374;1253;66012;-54
2023/12/06 04:19:52;;;;;;;26.30;14.70;;;;;;;-3.24;100.00;101380.32;109321;1254;70634;-55
2023/12/06 04:22:20;;;;;;;23.10;14.50;;;;;;;-3.25;100.00;101379.17;109400;1253;60957;-55
2023/12/06 04:24:47;;;;;;;27.20;15.70;;;;;;;-3.25;100.00;101378.81;109340;1252;60453;-56
2023/12/06 04:27:15;;;;;;;29.10;14.90;;;;;;;-3.25;100.00;101379.86;109346;1253;74366;-54
2023/12/06 04:29:43;;;;;;;24.70;14.80;;;;;;;-3.25;100.00;101380.71;109351;1253;66102;-54
2023/12/06 04:32:10;;;;;;;25.10;14.00;;;;;;;-3.27;100.00;101379.94;109460;1254;71716;-54
2023/12/06 04:34:47;;;;;;;26.90;14.30;;;;;;;-3.28;100.00;101375.39;109291;1252;60999;-60
2023/12/06 04:37:15;;;;;;;22.80;13.10;;;;;;;-3.30;100.00;101378.85;109343;1254;60652;-55
2023/12/06 04:39:42;;;;;;;22.60;14.10;;;;;;;-3.31;100.00;101378.56;109343;1253;74726;-55
2023/12/06 04:42:10;;;;;;;24.00;13.90;;;;;;;-3.31;100.00;101383.67;109319;1253;65680;-54
2023/12/06 04:44:38;;;;;;;25.30;14.80;;;;;;;-3.32;100.00;101384.90;109324;1254;70922;-54
2023/12/06 04:47:05;;;;;;;22.80;13.50;;;;;;;-3.31;100.00;101388.27;109311;1253;59002;-54
2023/12/06 04:49:33;;;;;;;22.30;13.20;;;;;;;-3.29;100.00;101388.85;109343;1253;59015;-55
2023/12/06 04:52:01;;;;;;;25.80;14.00;;;;;;;-3.25;100.00;101389.05;109363;1253;73800;-54
2023/12/06 04:54:28;;;;;;;23.80;13.90;;;;;;;-3.24;100.00;101388.80;109331;1254;66967;-54
2023/12/06 04:56:58;;;;;;;24.30;12.60;;;;;;;-3.23;100.00;101386.92;109325;1257;72744;-54
2023/12/06 04:59:26;;;;;;;22.70;13.20;;;;;;;-3.24;100.00;101381.98;109373;1253;60913;-56
2023/12/06 05:01:53;;;;;;;23.80;13.00;;;;;;;-3.23;100.00;101383.83;109359;1254;58942;-56
2023/12/06 05:04:22;;;;;;;23.80;12.90;;;;;;;-3.21;100.00;101382.06;109377;1253;74747;-56
2023/12/06 05:06:50;;;;;;;26.10;13.60;;;;;;;-3.22;100.00;101377.83;109339;1253;66921;-58
2023/12/06 05:09:17;;;;;;;24.50;13.70;;;;;;;-3.23;100.00;101380.23;109319;1253;73020;-56
2023/12/06 05:11:45;;;;;;;21.70;13.80;;;;;;;-3.24;100.00;101379.63;109347;1253;59392;-56
2023/12/06 05:14:13;;;;;;;23.30;13.40;;;;;;;-3.25;100.00;101378.83;109391;1253;60283;-56
2023/12/06 05:16:41;;;;;;;23.90;14.40;;;;;;;-3.26;100.00;101377.15;109339;1253;77257;-56
2023/12/06 05:19:09;;;;;;;23.60;13.00;;;;;;;-3.26;100.00;101372.25;109376;1258;66304;-57
2023/12/06 05:21:37;;;;;;;22.10;12.40;;;;;;;-3.27;100.00;101378.04;109368;1254;71809;-56
2023/12/06 05:24:05;;;;;;;21.00;12.60;;;;;;;-3.27;100.00;101377.56;109396;1253;59130;-57
2023/12/06 05:26:32;;;;;;;23.70;13.60;;;;;;;-3.33;100.00;101379.52;109403;1253;60172;-57
2023/12/06 05:29:00;;;;;;;22.30;12.90;;;;;;;-3.28;100.00;101377.09;109352;1253;74623;-57
2023/12/06 05:31:27;;;;;;;21.10;12.60;;;;;;;-3.25;100.00;101377.98;109397;1253;66963;-53
2023/12/06 05:33:55;;;;;;;21.40;12.30;;;;;;;-3.25;100.00;101375.92;109416;1253;71426;-56
2023/12/06 05:36:23;;;;;;;18.90;11.30;;;;;;;-3.22;100.00;101376.80;109354;1254;59304;-56
2023/12/06 05:38:51;;;;;;;19.40;11.70;;;;;;;-3.21;100.00;101378.13;109376;1254;58967;-61
2023/12/06 05:41:20;;;;;;;19.10;10.60;;;;;;;-3.19;100.00;101380.45;109390;1254;74573;-56
2023/12/06 05:43:48;;;;;;;20.20;11.10;;;;;;;-3.18;100.00;101380.06;109378;1254;66070;-56
2023/12/06 05:46:16;;;;;;;20.80;12.30;;;;;;;-3.18;100.00;101383.95;109377;1252;71518;-57
2023/12/06 05:48:43;;;;;;;19.60;10.50;;;;;;;-3.16;100.00;101381.18;109280;1254;58941;-56
2023/12/06 05:51:11;;;;;;;18.30;10.60;;;;;;;-3.16;100.00;101381.16;109327;1253;60122;-61
2023/12/06 05:53:39;;;;;;;15.80;9.30;;;;;;;-3.14;100.00;101385.33;109421;1254;73538;-54
2023/12/06 05:56:07;;;;;;;20.40;10.90;;;;;;;-3.12;100.00;101381.31;109373;1258;66344;-56
2023/12/06 05:58:34;;;;;;;20.00;11.10;;;;;;;-3.08;100.00;101385.21;109358;1252;72766;-54
2023/12/06 06:01:02;;;;;;;15.30;9.70;;;;;;;-3.01;100.00;101391.21;109386;1253;59573;-53
2023/12/06 06:03:30;;;;;;;14.30;9.60;;;;;;;-2.94;100.00;101390.53;109377;1252;60463;-54
2023/12/06 06:05:57;;;;;;;18.80;10.30;;;;;;;-2.85;100.00;101385.04;109409;1253;74701;-54
2023/12/06 06:08:25;;;;;;;17.30;10.40;;;;;;;-2.81;100.00;101383.34;109410;1254;66957;-55
2023/12/06 06:10:53;;;;;;;18.20;10.60;;;;;;;-2.80;100.00;101387.20;109355;1253;72382;-56
2023/12/06 06:13:20;;;;;;;18.70;10.40;;;;;;;-2.80;100.00;101395.39;109366;1253;61012;-57
2023/12/06 06:15:49;;;;;;;16.00;9.70;;;;;;;-2.80;100.00;101385.85;109391;1254;59022;-56
2023/12/06 06:18:16;;;;;;;18.00;10.10;;;;;;;-2.80;100.00;101381.73;109331;1253;74654;-56
2023/12/06 06:20:44;;;;;;;17.90;10.20;;;;;;;-2.78;100.00;101387.76;109381;1252;66936;-56
2023/12/06 06:23:11;;;;;;;17.10;9.10;;;;;;;-2.75;100.00;101390.53;109324;1254;71678;-57
2023/12/06 06:25:39;;;;;;;19.40;9.20;;;;;;;-2.74;100.00;101393.21;109274;1254;59676;-60
2023/12/06 06:28:07;;;;;;;16.00;10.40;;;;;;;-2.72;100.00;101394.67;109360;1253;59045;-56
2023/12/06 06:30:34;;;;;;;22.40;10.20;;;;;;;-2.69;100.00;101395.90;109347;1253;73435;-56
2023/12/06 06:33:02;;;;;;;18.70;10.60;;;;;;;-2.67;100.00;101404.98;109371;1253;67083;-57
2023/12/06 06:35:30;;;;;;;17.10;9.80;;;;;;;-2.63;100.00;101401.44;109353;1252;72741;-56
2023/12/06 06:37:57;;;;;;;21.60;13.00;;;;;;;-2.60;100.00;101397.04;109311;1253;61051;-62
2023/12/06 06:40:25;;;;;;;19.80;11.90;;;;;;;-2.56;100.00;101395.28;109361;1254;60085;-57
2023/12/06 06:42:54;;;;;;;21.10;14.80;;;;;;;-2.51;100.00;101393.34;109390;1253;73444;-56
2023/12/06 06:45:22;;;;;;;21.30;12.70;;;;;;;-2.46;100.00;101391.95;109406;1253;65651;-56
2023/12/06 06:47:50;;;;;;;16.10;9.50;;;;;;;-2.43;100.00;101393.34;109316;1253;71877;-57
2023/12/06 06:50:18;;;;;;;18.30;11.30;;;;;;;-2.41;100.00;101399.85;109328;1253;59844;-56
2023/12/06 06:52:48;;;;;;;17.00;10.30;;;;;;;-2.37;100.00;101400.70;109420;1252;60006;-56
2023/12/06 06:55:16;;;;;;;19.10;12.20;;;;;;;-2.34;100.00;101402.09;109360;1253;74766;-57
2023/12/06 06:57:43;;;;;;;27.90;17.00;;;;;;;-2.31;100.00;101401.98;109368;1253;66712;-57
2023/12/06 07:00:13;;;;;;;24.40;13.20;;;;;;;-2.30;100.00;101398.48;109280;1254;71456;-58
2023/12/06 07:02:41;;;;;;;35.30;20.70;;;;;;;-2.24;100.00;101400.95;109339;1253;59353;-56
2023/12/06 07:05:12;;;;;;;27.50;15.40;;;;;;;-2.17;100.00;101394.17;109375;1253;60095;-56
2023/12/06 07:07:41;;;;;;;25.30;15.40;;;;;;;-2.12;100.00;101391.35;109368;1253;74967;-56
2023/12/06 07:10:09;;;;;;;19.70;12.30;;;;;;;-2.07;100.00;101398.27;109313;1255;64743;-57
2023/12/06 07:12:38;;;;;;;17.60;10.50;;;;;;;-2.02;100.00;101389.14;109342;1253;73575;-56
2023/12/06 07:15:13;;;;;;;23.30;11.00;;;;;;;-1.98;100.00;101384.02;109329;1253;59341;-56
2023/12/06 07:17:44;;;;;;;18.10;9.50;;;;;;;-1.89;100.00;101380.20;109371;1253;60102;-56
2023/12/06 07:20:12;;;;;;;18.00;9.50;;;;;;;-1.82;100.00;101378.64;109357;1253;73458;-61
2023/12/06 07:22:40;;;;;;;16.00;10.10;;;;;;;-1.79;100.00;101372.33;109364;1253;67498;-56
2023/12/06 07:25:08;;;;;;;16.50;10.30;;;;;;;-1.78;100.00;101369.23;109301;1255;72944;-56
2023/12/06 07:27:35;;;;;;;17.10;10.10;;;;;;;-1.81;100.00;101365.33;109335;1254;59332;-57
2023/12/06 07:30:04;;;;;;;16.20;9.50;;;;;;;-1.80;100.00;101360.96;109363;1253;60098;-56
2023/12/06 07:32:32;;;;;;;15.80;8.20;;;;;;;-1.76;100.00;101358.56;109317;1253;73459;-56
2023/12/06 07:35:16;;;;;;;13.80;7.90;;;;;;;-1.70;100.00;101356.58;109337;1253;67648;-56
2023/12/06 07:37:44;;;;;;;12.30;8.40;;;;;;;-1.66;100.00;101347.52;109300;1254;72762;-56
2023/12/06 07:40:11;;;;;;;16.70;8.30;;;;;;;-1.61;100.00;101353.41;109263;1253;59477;-57
2023/12/06 07:42:39;;;;;;;11.60;7.80;;;;;;;-1.54;100.00;101346.56;109317;1254;59404;-57
2023/12/06 07:45:11;;;;;;;14.00;8.40;;;;;;;-1.44;100.00;101348.79;109340;1253;74745;-56
2023/12/06 07:47:40;;;;;;;13.20;7.20;;;;;;;-1.29;100.00;101353.11;109336;1253;65645;-56
2023/12/06 07:50:09;;;;;;;14.50;7.80;;;;;;;-1.09;100.00;101346.80;109247;1253;72773;-61
2023/12/06 07:52:36;;;;;;;11.20;7.60;;;;;;;-0.90;100.00;101347.14;109310;1254;59472;-54
2023/12/06 07:55:06;;;;;;;12.00;7.20;;;;;;;-0.70;100.00;101340.75;109315;1253;58949;-54
2023/12/06 07:57:35;;;;;;;12.60;7.50;;;;;;;-0.40;100.00;101333.61;109326;1253;74940;-56
2023/12/06 08:00:04;;;;;;;12.50;7.70;;;;;;;-0.08;100.00;101320.89;109287;1254;65833;-54
2023/12/06 08:02:39;;;;;;;11.50;7.60;;;;;;;0.18;100.00;101318.02;109331;1253;72914;-55
2023/12/06 08:05:10;;;;;;;12.60;7.00;;;;;;;0.30;100.00;101308.78;109256;1254;59012;-54
2023/12/06 08:07:39;;;;;;;13.70;8.00;;;;;;;0.50;100.00;101310.80;109291;1253;60544;-54
2023/12/06 08:10:12;;;;;;;10.80;6.70;;;;;;;0.70;100.00;101304.94;109256;1253;73926;-55
2023/12/06 08:12:40;;;;;;;10.60;6.70;;;;;;;0.76;100.00;101305.15;109331;1253;66280;-55
2023/12/06 08:15:08;;;;;;;10.50;6.60;;;;;;;0.78;100.00;101295.45;109336;1254;72634;-54
2023/12/06 08:17:36;;;;;;;8.90;6.20;;;;;;;0.81;100.00;101296.95;109286;1257;59527;-55
2023/12/06 08:20:05;;;;;;;10.60;6.40;;;;;;;0.93;100.00;101279.64;109259;1253;59541;-60
2023/12/06 08:22:33;;;;;;;8.60;5.90;;;;;;;1.02;100.00;101281.45;109316;1253;74875;-55
2023/12/06 08:25:00;;;;;;;11.30;6.10;;;;;;;1.11;100.00;101276.95;109306;1255;65655;-55
2023/12/06 08:27:29;;;;;;;12.20;5.90;;;;;;;1.20;100.00;101269.20;109310;1254;71443;-55
2023/12/06 08:29:57;;;;;;;10.60;6.10;;;;;;;1.28;100.00;101272.44;109282;1255;59362;-59
2023/12/06 08:32:26;;;;;;;11.40;7.00;;;;;;;1.32;100.00;101265.55;109300;1257;60870;-55
2023/12/06 08:34:54;;;;;;;12.90;7.80;;;;;;;1.37;100.00;101269.80;109315;1253;74703;-55
2023/12/06 08:37:22;;;;;;;9.00;5.50;;;;;;;1.41;100.00;101273.81;109317;1254;65625;-56
2023/12/06 08:39:50;;;;;;;9.30;6.10;;;;;;;1.33;100.00;101272.47;109342;1254;72861;-54
2023/12/06 08:42:18;;;;;;;12.30;6.40;;;;;;;1.14;100.00;101259.64;109208;1257;60197;-55
2023/12/06 08:44:45;;;;;;;11.60;6.50;;;;;;;1.00;100.00;101262.08;109321;1253;59965;-55
2023/12/06 08:47:17;;;;;;;12.00;7.00;;;;;;;0.85;100.00;101262.16;109298;1253;73466;-54
2023/12/06 08:49:45;;;;;;;9.10;5.10;;;;;;;0.65;100.00;101267.81;109307;1254;66859;-55
2023/12/06 08:52:14;;;;;;;11.60;5.80;;;;;;;0.52;100.00;101263.11;109226;1254;73208;-54
2023/12/06 08:54:42;;;;;;;11.20;5.40;;;;;;;0.44;100.00;101261.73;109321;1257;58886;-54
2023/12/06 08:57:09;;;;;;;8.60;5.70;;;;;;;0.29;100.00;101257.19;109343;1253;59202;-54
2023/12/06 08:59:37;;;;;;;9.90;5.60;;;;;;;0.16;100.00;101261.39;109378;1253;74852;-54
2023/12/06 09:02:05;;;;;;;10.30;6.10;;;;;;;0.16;100.00;101262.39;109318;1253;65712;-59
2023/12/06 09:04:33;;;;;;;9.80;5.20;;;;;;;0.22;100.00;101251.08;109292;1254;73548;-55
2023/12/06 09:07:01;;;;;;;9.50;5.90;;;;;;;0.24;100.00;101249.98;109341;1254;60388;-54
2023/12/06 09:09:28;;;;;;;10.70;5.90;;;;;;;0.17;100.00;101251.39;109341;1254;60140;-57
2023/12/06 09:11:56;;;;;;;8.60;4.60;;;;;;;0.05;100.00;101242.54;109393;1252;74705;-55
2023/12/06 09:14:24;;;;;;;11.10;5.20;;;;;;;0.02;100.00;101240.55;109416;1254;68573;-54
2023/12/06 09:16:52;;;;;;;9.60;5.00;;;;;;;0.06;100.00;101233.11;109335;1253;73243;-54
2023/12/06 09:19:20;;;;;;;12.10;6.60;;;;;;;0.18;100.00;101225.67;109356;1253;59047;-55
2023/12/06 09:22:05;;;;;;;9.20;6.10;;;;;;;0.29;100.00;101220.97;109369;1252;59431;-54
2023/12/06 09:24:33;;;;;;;10.50;5.90;;;;;;;0.47;100.00;101220.71;109434;1253;74747;-55
2023/12/06 09:27:01;;;;;;;9.40;5.20;;;;;;;0.74;100.00;101221.60;109327;1252;65686;-55
2023/12/06 09:29:29;;;;;;;8.90;5.40;;;;;;;0.95;100.00;101215.14;109375;1253;73743;-56
2023/12/06 09:31:57;;;;;;;10.60;6.50;;;;;;;1.10;100.00;101213.34;109376;1254;62680;-54
2023/12/06 09:34:24;;;;;;;9.50;5.80;;;;;;;1.27;100.00;101215.96;109399;1253;60957;-56
2023/12/06 09:37:07;;;;;;;7.90;5.10;;;;;;;1.43;100.00;101217.36;109355;1253;73939;-56
2023/12/06 09:39:34;;;;;;;10.00;5.90;;;;;;;1.53;100.00;101218.05;109352;1253;67024;-57
2023/12/06 09:42:02;;;;;;;9.90;5.30;;;;;;;1.56;100.00;101218.73;109344;1253;71586;-57
2023/12/06 09:44:31;;;;;;;14.70;9.80;;;;;;;1.50;100.00;101217.73;109336;1253;59449;-56
2023/12/06 09:47:01;;;;;;;32.10;17.30;;;;;;;1.33;100.00;101215.27;109134;1253;60138;-56
2023/12/06 09:49:29;;;;;;;44.80;23.20;;;;;;;1.06;100.00;101220.27;109394;1253;73462;-56
2023/12/06 09:52:07;;;;;;;36.90;17.40;;;;;;;0.79;100.00;101220.39;109295;1254;69538;-58
2023/12/06 09:54:39;;;;;;;13.70;7.90;;;;;;;0.61;100.00;101219.16;109301;1253;72716;-55
2023/12/06 09:57:07;;;;;;;8.80;5.20;;;;;;;0.42;100.00;101224.77;109216;1254;58916;-55
2023/12/06 09:59:34;;;;;;;10.60;7.70;;;;;;;0.17;100.00;101212.10;109338;1253;60188;-55
2023/12/06 10:02:02;;;;;;;9.10;5.50;;;;;;;-0.07;100.00;101214.05;109385;1253;77010;-56
2023/12/06 10:04:30;;;;;;;8.20;5.10;;;;;;;-0.24;100.00;101213.67;109350;1253;70632;-55
2023/12/06 10:06:59;;;;;;;9.30;5.60;;;;;;;-0.37;100.00;101224.48;109347;1253;73857;-55
2023/12/06 10:09:27;;;;;;;8.70;5.90;;;;;;;-0.47;100.00;101212.27;109295;1253;60163;-54
2023/12/06 10:12:11;;;;;;;8.20;4.90;;;;;;;-0.50;100.00;101209.04;109307;1253;60966;-56
2023/12/06 10:14:39;;;;;;;8.30;5.10;;;;;;;-0.51;100.00;101183.83;109326;1252;74727;-56
2023/12/06 10:17:09;;;;;;;17.40;10.60;;;;;;;-0.50;100.00;101180.85;109218;1253;68325;-57
2023/12/06 10:19:37;;;;;;;17.70;9.20;;;;;;;-0.46;100.00;101181.33;109281;1254;71411;-55
2023/12/06 10:22:05;;;;;;;11.70;6.60;;;;;;;-0.42;100.00;101172.73;109408;1254;60176;-54
2023/12/06 10:24:33;;;;;;;9.80;5.60;;;;;;;-0.41;100.00;101156.11;109357;1253;59016;-54
2023/12/06 10:27:03;;;;;;;8.90;4.70;;;;;;;-0.39;100.00;101155.84;109211;1254;73256;-55
2023/12/06 10:29:31;;;;;;;8.70;5.10;;;;;;;-0.34;100.00;101146.63;109313;1252;66049;-60
2023/12/06 10:31:59;;;;;;;8.00;5.20;;;;;;;-0.30;100.00;101145.54;109332;1254;74127;-54
2023/12/06 10:34:30;;;;;;;10.10;7.10;;;;;;;-0.29;100.00;101149.89;109301;1254;62342;-56
2023/12/06 10:36:58;;;;;;;13.20;11.40;;;;;;;-0.24;100.00;101140.55;109332;1252;62780;-54
2023/12/06 10:39:26;;;;;;;8.30;5.90;;;;;;;-0.18;100.00;101140.19;109315;1253;73563;-57
2023/12/06 10:41:55;;;;;;;8.10;4.50;;;;;;;-0.13;100.00;101127.61;109377;1253;67778;-54
2023/12/06 10:44:23;;;;;;;7.50;4.90;;;;;;;-0.12;100.00;101119.69;109309;1253;73697;-55
2023/12/06 10:46:51;;;;;;;7.90;4.90;;;;;;;-0.09;100.00;101110.29;109354;1253;59869;-55
2023/12/06 10:49:32;;;;;;;7.70;4.60;;;;;;;-0.01;100.00;101102.44;109284;1254;59152;-57
2023/12/06 10:52:00;;;;;;;8.80;5.10;;;;;;;0.02;100.00;101108.92;109110;1252;75838;-54
2023/12/06 10:54:28;;;;;;;5.80;3.80;;;;;;;0.03;100.00;101102.36;109398;1253;68987;-54
2023/12/06 10:56:57;;;;;;;9.30;4.70;;;;;;;0.05;100.00;101101.06;109339;1254;74814;-56
2023/12/06 10:59:28;;;;;;;7.50;4.90;;;;;;;0.04;100.00;101108.11;109279;1253;61368;-58
2023/12/06 11:01:56;;;;;;;9.60;5.20;;;;;;;-0.01;100.00;101096.61;109325;1253;61106;-55
2023/12/06 11:04:24;;;;;;;8.90;5.10;;;;;;;-0.04;100.00;101095.08;109336;1254;76782;-56